Time;durP1;ratioP1;P1;durP2;ratioP2;P2;SDS_P1;SDS_P2;PMS_P1;PMS_P2;Temp;Humidity;BMP_temperature;BMP_pressure;BME280_temperature;BME280_humidity;BME280_pressure;Samples;Min_cycle;Max_cycle;Signal;HPM_P1;HPM_P2
2022/12/17 13:08:13;;;;;;;2.90;2.78;;;;;;;2.75;57.61;100277.81;4296710;33;32994;-87
2022/12/17 13:10:48;;;;;;;1.35;1.25;;;;;;;2.54;58.19;100297.00;4315100;33;32480;-87
2022/12/17 13:13:37;;;;;;;5.20;4.12;;;;;;;2.79;56.95;100292.56;4314993;33;35717;-88
2022/12/17 13:16:30;;;;;;;3.97;3.45;;;;;;;3.10;55.50;100291.56;4315979;33;32524;-86
2022/12/17 13:19:18;;;;;;;0.73;0.73;;;;;;;2.40;57.54;100290.09;4301671;33;33538;-86
2022/12/17 13:21:49;;;;;;;2.62;2.45;;;;;;;2.49;57.71;100295.28;4317170;33;32375;-87
2022/12/17 13:24:27;;;;;;;1.33;1.27;;;;;;;2.54;57.84;100301.34;4301442;33;33784;-87
2022/12/17 13:26:56;;;;;;;2.50;2.30;;;;;;;2.34;58.68;100309.22;4303262;33;33908;-87
2022/12/17 13:29:34;;;;;;;4.87;4.18;;;;;;;2.21;nan;100303.16;4294422;33;33249;-87
2022/12/17 13:32:14;;;;;;;5.00;4.60;;;;;;;2.65;57.80;100309.13;4301683;33;33246;-86
2022/12/17 13:35:03;;;;;;;2.55;2.37;;;;;;;2.44;58.06;100307.47;4303936;33;34078;-87
2022/12/17 13:38:00;;;;;;;5.22;4.82;;;;;;;2.22;58.14;100315.31;4307987;33;32702;-87
2022/12/17 13:41:08;;;;;;;1.95;1.85;;;;;;;2.03;59.08;100329.22;4292178;33;32784;-86
2022/12/17 13:46:45;;;;;;;16.05;2.28;;;;;;;2.40;57.80;100329.19;4303180;33;33849;-86
2022/12/17 13:49:20;;;;;;;7.57;3.92;;;;;;;2.58;57.21;100320.47;4302531;33;32942;-87
2022/12/17 13:52:00;;;;;;;1.87;1.27;;;;;;;2.30;58.13;100324.00;4313742;33;32504;-88
2022/12/17 13:54:42;;;;;;;15.80;4.68;;;;;;;2.37;58.33;100334.41;4309904;33;34758;-87
2022/12/17 13:57:15;;;;;;;5.40;4.07;;;;;;;2.46;57.89;100344.81;4291908;33;34451;-87
2022/12/17 13:59:58;;;;;;;3.65;3.35;;;;;;;2.81;57.18;100352.56;4316911;33;32912;-87
2022/12/17 14:02:37;;;;;;;3.30;3.10;;;;;;;2.54;58.09;100374.34;4295164;33;32594;-87
2022/12/17 14:05:25;;;;;;;8.00;5.18;;;;;;;2.72;58.04;100368.22;4284165;33;34570;-87
2022/12/17 14:08:00;;;;;;;2.40;2.20;;;;;;;2.50;58.42;100377.81;4287180;33;33631;-87
2022/12/17 14:10:32;;;;;;;1.15;1.15;;;;;;;2.42;58.17;100364.81;4289069;33;35426;-87
2022/12/17 14:13:05;;;;;;;3.90;3.55;;;;;;;2.26;58.39;100374.38;4284980;33;33466;-87
2022/12/17 14:15:46;;;;;;;4.37;3.72;;;;;;;2.07;58.92;100390.88;4301995;33;33093;-87
2022/12/17 14:18:20;;;;;;;9.23;7.15;;;;;;;2.34;58.54;100386.53;4295387;33;33759;-87
2022/12/17 14:20:50;;;;;;;;;;;;;;;2.59;57.78;100380.41;4295254;33;33931;-87
2022/12/17 14:23:27;;;;;;;2.73;1.90;;;;;;;2.49;57.91;100376.09;4307399;33;31881;-87
2022/12/17 14:26:04;;;;;;;4.70;2.72;;;;;;;2.45;58.36;100390.84;4294696;33;34605;-87
2022/12/17 14:28:37;;;;;;;7.90;4.35;;;;;;;2.16;58.74;100403.91;4286193;33;33262;-87
2022/12/17 14:31:19;;;;;;;4.68;4.32;;;;;;;2.43;57.28;100405.63;4294991;33;33058;-86
2022/12/17 14:34:05;;;;;;;3.83;3.50;;;;;;;2.01;59.37;100414.31;4301277;33;33173;-87
2022/12/17 14:39:28;;;;;;;3.20;2.95;;;;;;;2.33;58.42;100422.16;4296879;33;33622;-87
2022/12/17 14:42:24;;;;;;;0.22;0.22;;;;;;;2.00;58.66;100423.00;4297524;33;33502;-87
2022/12/17 14:44:58;;;;;;;6.68;3.53;;;;;;;2.23;58.14;100426.50;4298109;33;32192;-87
2022/12/17 14:47:29;;;;;;;3.85;1.37;;;;;;;2.19;58.12;100429.97;4296325;33;33101;-87
2022/12/17 14:50:01;;;;;;;4.07;3.12;;;;;;;2.62;56.79;100443.00;4297569;33;32961;-87
2022/12/17 14:55:37;;;;;;;1.73;1.67;;;;;;;2.15;58.33;100463.84;4298926;33;31694;-87
2022/12/17 14:58:15;;;;;;;1.75;1.65;;;;;;;1.95;58.77;100466.41;4289820;33;33210;-87
2022/12/17 15:00:55;;;;;;;2.00;1.90;;;;;;;2.05;59.11;100470.78;4298851;33;32418;-87
2022/12/17 15:03:44;;;;;;;0.80;0.65;;;;;;;2.21;57.73;100471.66;4307836;33;34923;-87
2022/12/17 15:06:19;;;;;;;2.37;2.28;;;;;;;2.08;59.11;100483.78;4299550;33;20165;-87
2022/12/17 15:08:49;;;;;;;8.10;5.62;;;;;;;2.14;58.78;100489.03;4273200;33;34135;-87
2022/12/17 15:11:20;;;;;;;1.23;1.23;;;;;;;2.33;57.68;100504.66;4285224;33;33637;-87
2022/12/17 15:13:52;;;;;;;2.15;1.95;;;;;;;2.37;57.89;100504.66;4298149;33;32922;-87
2022/12/17 15:16:27;;;;;;;0.98;0.80;;;;;;;1.58;59.27;100505.34;4295996;33;32605;-87
2022/12/17 15:18:59;;;;;;;3.78;2.92;;;;;;;1.81;59.45;100507.19;4297645;33;32992;-86
2022/12/17 15:21:29;;;;;;;2.35;2.25;;;;;;;1.35;60.34;100491.37;4290319;33;33741;-86
2022/12/17 15:23:57;;;;;;;15.18;4.07;;;;;;;1.78;59.54;100480.25;4309594;33;34065;-86
2022/12/17 15:26:35;;;;;;;2.53;2.33;;;;;;;1.46;60.86;100480.13;4287479;33;32456;-86
2022/12/17 15:29:04;;;;;;;1.42;1.35;;;;;;;1.64;59.60;100479.34;4297468;33;34534;-87
2022/12/17 15:31:36;;;;;;;2.17;2.03;;;;;;;1.47;60.17;100494.00;4297310;33;33310;-86
2022/12/17 15:34:11;;;;;;;4.55;3.70;;;;;;;1.29;61.08;100489.62;4289450;33;33405;-86
2022/12/17 15:36:41;;;;;;;1.98;1.17;;;;;;;1.40;60.73;100498.34;4274751;33;32571;-86
2022/12/17 15:39:10;;;;;;;2.53;2.42;;;;;;;1.35;60.69;100491.37;4296546;33;32798;-87
2022/12/17 15:44:39;;;;;;;0.73;0.73;;;;;;;1.94;58.60;100503.72;4297157;33;33281;-87
2022/12/17 15:47:08;;;;;;;1.83;1.80;;;;;;;1.53;60.09;100494.06;4275720;33;32025;-87
2022/12/17 15:49:37;;;;;;;9.80;3.83;;;;;;;1.43;60.49;100523.50;4298480;33;32771;-87
2022/12/17 15:52:15;;;;;;;0.47;0.47;;;;;;;1.34;60.52;100539.06;4310299;33;33342;-87
2022/12/17 15:54:48;;;;;;;0.82;0.82;;;;;;;1.63;60.44;100531.41;4294580;33;33701;-86
2022/12/17 15:57:20;;;;;;;3.90;3.55;;;;;;;1.99;58.83;100546.28;4296357;33;32705;-86
2022/12/17 15:59:57;;;;;;;0.50;0.50;;;;;;;1.72;59.57;100539.25;4285195;33;33007;-87
2022/12/17 16:02:36;;;;;;;4.40;1.90;;;;;;;1.86;59.21;100534.09;4308686;33;35326;-87
2022/12/17 16:05:11;;;;;;;1.10;1.00;;;;;;;2.20;57.97;100535.94;4309191;33;31879;-87
2022/12/17 16:07:43;;;;;;;1.83;1.52;;;;;;;1.91;58.96;100538.47;4300429;33;32500;-87
2022/12/17 16:10:13;;;;;;;1.45;1.35;;;;;;;1.87;58.75;100533.22;4298387;33;33577;-87
2022/12/17 16:12:44;;;;;;;14.10;2.58;;;;;;;2.24;57.72;100545.50;4297625;33;33200;-87
2022/12/17 16:15:17;;;;;;;1.25;1.25;;;;;;;2.13;58.25;100539.38;4298392;33;32233;-86
2022/12/17 16:17:47;;;;;;;1.23;1.02;;;;;;;1.90;59.28;100541.03;4309431;33;32615;-86
2022/12/17 16:20:16;;;;;;;16.45;4.10;;;;;;;1.85;59.42;100553.16;4285907;33;33590;-87
2022/12/17 16:22:50;;;;;;;1.42;1.33;;;;;;;2.04;58.65;100554.97;4286348;33;34455;-86
2022/12/17 16:25:20;;;;;;;1.67;1.58;;;;;;;1.90;59.26;100561.88;4291976;33;33510;-87
2022/12/17 16:27:49;;;;;;;2.05;0.95;;;;;;;1.67;60.15;100578.28;4309411;33;32594;-87
2022/12/17 16:30:19;;;;;;;4.43;3.90;;;;;;;1.97;59.10;100587.94;4309971;33;33813;-87
2022/12/17 16:32:51;;;;;;;1.50;1.45;;;;;;;1.94;59.66;100590.53;4296819;33;33595;-87
2022/12/17 16:35:23;;;;;;;1.35;1.25;;;;;;;1.81;60.17;100603.53;4285737;33;33148;-87
2022/12/17 16:40:42;;;;;;;2.00;1.90;;;;;;;1.95;60.11;100610.53;4298235;33;33896;-87
2022/12/17 16:43:15;;;;;;;1.73;1.70;;;;;;;2.16;59.26;100607.13;4297254;33;34429;-87
2022/12/17 16:48:25;;;;;;;2.12;2.03;;;;;;;1.96;60.06;100614.88;4290298;33;33346;-87
2022/12/17 16:50:54;;;;;;;4.80;4.07;;;;;;;1.52;61.50;100627.66;4310559;33;33454;-87
2022/12/17 16:53:23;;;;;;;2.22;2.12;;;;;;;2.17;59.61;100631.44;4299476;33;31746;-85
2022/12/17 16:56:04;;;;;;;1.65;1.52;;;;;;;2.08;59.60;100637.47;4287227;33;34690;-85
2022/12/17 16:58:40;;;;;;;2.95;2.75;;;;;;;1.82;61.04;100641.72;4299740;33;33263;-86
2022/12/17 17:01:09;;;;;;;5.50;3.15;;;;;;;2.10;59.61;100648.78;4300866;33;34178;-85
2022/12/17 17:03:40;;;;;;;1.60;1.50;;;;;;;2.37;58.96;100652.34;4298511;33;32953;-85
2022/12/17 17:06:16;;;;;;;4.25;1.80;;;;;;;2.40;58.71;100658.44;4303939;33;34439;-85
2022/12/17 17:11:23;;;;;;;1.30;1.30;;;;;;;2.34;58.99;100662.78;4302717;33;34044;-86
2022/12/17 17:13:56;;;;;;;0.40;0.40;;;;;;;1.88;60.40;100678.19;4289946;33;33659;-87
2022/12/17 17:16:29;;;;;;;4.30;2.28;;;;;;;1.64;61.48;100679.78;4304094;33;34260;-86
2022/12/17 17:18:58;;;;;;;0.73;0.73;;;;;;;2.34;58.84;100673.22;4294661;33;32999;-86
2022/12/17 17:21:29;;;;;;;2.22;2.05;;;;;;;2.04;60.16;100674.78;4307060;33;33687;-86
2022/12/17 17:26:48;;;;;;;2.03;1.52;;;;;;;2.14;59.87;100692.25;4299492;33;32400;-86
2022/12/17 17:29:23;;;;;;;2.22;2.08;;;;;;;2.04;59.80;100690.44;4289883;33;32674;-86
2022/12/17 17:31:58;;;;;;;5.95;3.10;;;;;;;1.87;60.36;100713.78;4303918;33;34350;-87
2022/12/17 17:34:42;;;;;;;3.58;3.30;;;;;;;1.83;60.92;100718.97;4295460;33;33870;-87
2022/12/17 17:37:12;;;;;;;1.25;1.25;;;;;;;1.89;60.86;100716.38;4302154;33;34016;-86
2022/12/17 17:39:43;;;;;;;1.77;1.73;;;;;;;2.13;59.76;100726.94;4290871;33;32997;-90
2022/12/17 17:42:14;;;;;;;2.60;2.35;;;;;;;1.80;61.08;100732.81;4305081;33;33330;-88
2022/12/17 17:44:50;;;;;;;3.58;2.67;;;;;;;1.72;61.34;100730.19;4316111;33;36071;-90
2022/12/17 17:47:22;;;;;;;1.92;1.73;;;;;;;2.07;60.09;100731.25;4315556;33;32702;-89
2022/12/17 17:49:53;;;;;;;0.03;0.03;;;;;;;1.97;60.58;100735.56;4304314;33;32708;-88
2022/12/17 17:52:21;;;;;;;4.53;4.10;;;;;;;1.93;60.38;100725.97;4302583;33;33675;-90
2022/12/17 17:54:50;;;;;;;1.12;1.10;;;;;;;1.84;60.34;100733.72;4320414;33;33213;-86
2022/12/17 17:57:19;;;;;;;2.60;2.40;;;;;;;2.14;59.47;100733.94;4290345;33;33567;-87
2022/12/17 17:59:56;;;;;;;1.55;1.23;;;;;;;2.14;59.64;100749.56;4316644;33;33741;-86
2022/12/17 18:02:25;;;;;;;2.58;2.40;;;;;;;2.23;58.76;100749.63;4315671;33;31875;-86
2022/12/17 18:04:55;;;;;;;0.62;0.62;;;;;;;2.33;58.55;100749.63;4308534;33;33440;-86
2022/12/17 18:07:25;;;;;;;0.68;0.68;;;;;;;2.17;58.93;100759.97;4295622;33;33138;-85
2022/12/17 18:09:58;;;;;;;1.58;1.48;;;;;;;2.20;58.77;100769.56;4309961;33;32707;-85
2022/12/17 18:15:23;;;;;;;1.95;1.85;;;;;;;1.99;59.64;100780.69;4283408;33;33183;-85
2022/12/17 18:17:53;;;;;;;0.03;0.03;;;;;;;2.36;58.02;100789.63;4308815;33;33670;-85
2022/12/17 18:20:24;;;;;;;2.40;2.30;;;;;;;2.26;58.09;100786.09;4308713;33;32673;-85
2022/12/17 18:22:59;;;;;;;1.42;1.33;;;;;;;2.09;59.37;100803.37;4295399;33;34567;-85
2022/12/17 18:25:30;;;;;;;1.85;1.70;;;;;;;2.09;59.29;100808.59;4297844;33;33352;-85
2022/12/17 18:28:05;;;;;;;3.83;2.75;;;;;;;2.20;58.24;100796.50;4297166;33;33775;-85
2022/12/17 18:30:37;;;;;;;2.08;1.92;;;;;;;1.85;60.14;100817.06;4312713;33;32868;-90
2022/12/17 18:33:08;;;;;;;2.50;2.40;;;;;;;2.22;58.43;100807.78;4298697;33;32759;-90
2022/12/17 18:35:38;;;;;;;0.57;0.57;;;;;;;1.97;58.90;100813.69;4296840;33;35110;-90
2022/12/17 18:38:23;;;;;;;2.12;1.98;;;;;;;2.23;58.25;100817.38;4326849;33;33005;-89
2022/12/17 18:43:21;;;;;;;0.57;0.57;;;;;;;2.01;58.77;100815.47;4320296;33;32056;-89
2022/12/17 18:43:59;;;;;;;1.92;1.83;;;;;;;2.37;57.50;100821.75;4322579;33;32946;-89
2022/12/17 18:46:38;;;;;;;12.32;1.80;;;;;;;2.60;56.68;100835.81;4329590;33;34775;-89
2022/12/17 18:49:10;;;;;;;3.12;2.50;;;;;;;2.24;58.08;100839.94;4329084;33;32677;-90
2022/12/17 18:51:43;;;;;;;1.42;1.33;;;;;;;2.47;56.68;100857.44;4342500;32;32505;-90
2022/12/17 18:54:24;;;;;;;1.17;1.15;;;;;;;2.02;58.09;100856.28;4345304;32;31257;-92
2022/12/17 19:00:06;;;;;;;3.00;2.60;;;;;;;1.92;57.87;100852.72;4302815;33;32514;-91
2022/12/17 19:03:04;;;;;;;3.12;2.83;;;;;;;2.36;57.23;100864.34;4325179;33;34911;-91
2022/12/17 19:05:51;;;;;;;6.60;2.35;;;;;;;2.44;56.84;100867.87;4346811;32;33027;-87
2022/12/17 19:08:23;;;;;;;0.93;0.90;;;;;;;2.37;56.93;100873.88;4352207;32;31329;-88
2022/12/17 19:10:56;;;;;;;0.82;0.82;;;;;;;2.20;57.02;100879.88;4333274;33;32734;-88
2022/12/17 19:13:29;;;;;;;1.55;1.45;;;;;;;2.38;56.64;100878.28;4340315;33;33553;-88
2022/12/17 19:16:15;;;;;;;0.10;0.10;;;;;;;2.68;55.91;100886.28;4346453;32;34277;-88
2022/12/17 19:18:53;;;;;;;2.35;2.22;;;;;;;2.63;55.81;100894.94;4353793;32;32659;-86
2022/12/17 19:21:22;;;;;;;1.42;1.10;;;;;;;2.58;56.12;100902.72;4352905;32;33834;-86
2022/12/17 19:24:01;;;;;;;8.95;2.95;;;;;;;2.64;56.06;100902.75;4351418;32;33378;-85
2022/12/17 19:26:30;;;;;;;3.15;2.95;;;;;;;2.68;55.91;100907.13;4332836;33;33671;-86
2022/12/17 19:29:12;;;;;;;3.42;1.45;;;;;;;2.11;57.49;100910.19;4351606;32;34708;-86
2022/12/17 19:31:44;;;;;;;0.20;0.20;;;;;;;2.36;56.80;100908.66;4351641;32;33121;-85
2022/12/17 19:36:59;;;;;;;3.83;2.37;;;;;;;1.97;57.60;100918.75;4333836;33;33903;-85
2022/12/17 19:39:31;;;;;;;3.25;2.25;;;;;;;2.17;57.33;100918.06;4326871;33;33947;-86
2022/12/17 19:44:39;;;;;;;1.25;1.23;;;;;;;1.68;58.79;100928.87;4339598;33;33124;-85
2022/12/17 19:47:11;;;;;;;5.82;2.05;;;;;;;1.25;59.74;100941.41;4365969;32;31708;-86
2022/12/17 19:49:40;;;;;;;2.95;2.33;;;;;;;1.80;58.31;100948.97;4343528;32;32477;-86
2022/12/17 19:52:12;;;;;;;0.55;0.55;;;;;;;2.40;56.27;100944.31;4352161;32;33380;-86
2022/12/17 19:54:44;;;;;;;0.32;0.32;;;;;;;2.15;57.00;100949.31;4340802;32;32796;-85
2022/12/17 19:57:15;;;;;;;2.83;2.62;;;;;;;1.94;57.53;100959.50;4356121;32;32728;-85
2022/12/17 19:59:47;;;;;;;0.68;0.68;;;;;;;2.25;56.38;100950.28;4351300;32;33747;-84
2022/12/17 20:02:20;;;;;;;0.43;0.43;;;;;;;2.36;55.97;100960.78;4350453;32;33703;-85
2022/12/17 20:04:56;;;;;;;9.48;4.03;;;;;;;1.92;57.91;100962.13;4347192;32;32159;-85
2022/12/17 20:07:26;;;;;;;0.30;0.30;;;;;;;2.21;56.61;100965.00;4343470;32;34215;-86
2022/12/17 20:10:01;;;;;;;0.57;0.57;;;;;;;1.86;57.93;100977.69;4352746;32;33263;-86
2022/12/17 20:12:32;;;;;;;3.85;3.20;;;;;;;1.89;57.73;100980.31;4340301;32;33939;-86
2022/12/17 20:15:08;;;;;;;;;;;;;;;2.05;57.58;100986.56;4337125;32;32824;-85
2022/12/17 20:17:36;;;;;;;0.05;0.05;;;;;;;2.22;56.86;100987.59;4350808;32;34587;-86
2022/12/17 20:20:10;;;;;;;0.37;0.37;;;;;;;2.07;57.24;100991.78;4328377;33;34058;-85
2022/12/17 20:22:49;;;;;;;0.82;0.82;;;;;;;1.81;58.40;101000.22;4351792;32;32438;-86
2022/12/17 20:25:18;;;;;;;1.40;1.30;;;;;;;2.12;57.54;100998.78;4364134;32;32247;-86
2022/12/17 20:27:47;;;;;;;4.05;2.03;;;;;;;1.83;58.33;101006.28;4352003;32;32574;-86
2022/12/17 20:30:15;;;;;;;3.33;1.20;;;;;;;1.98;57.88;100997.78;4339239;33;33558;-85
2022/12/17 20:32:45;;;;;;;2.05;1.95;;;;;;;2.12;57.53;101006.59;4350247;32;32486;-86
2022/12/17 20:37:55;;;;;;;2.22;2.12;;;;;;;1.94;58.79;101027.25;4350846;32;32518;-86
2022/12/17 20:40:37;;;;;;;1.42;1.35;;;;;;;2.45;56.77;101020.81;4350648;32;33927;-86
2022/12/17 20:43:10;;;;;;;3.08;2.78;;;;;;;2.47;56.60;101019.97;4363447;32;34465;-85
2022/12/17 20:45:49;;;;;;;2.87;2.67;;;;;;;2.38;56.68;101024.22;4342843;32;33307;-85
2022/12/17 20:48:21;;;;;;;0.22;0.22;;;;;;;1.86;58.47;101034.13;4351370;32;33281;-85
2022/12/17 20:50:53;;;;;;;4.40;2.40;;;;;;;1.85;58.63;101043.63;4357320;32;32315;-85
2022/12/17 20:53:27;;;;;;;0.10;0.10;;;;;;;2.04;58.04;101044.72;4356170;32;33751;-85
2022/12/17 20:56:06;;;;;;;1.00;0.98;;;;;;;2.19;57.47;101044.03;4353634;32;32711;-85
2022/12/17 20:58:51;;;;;;;4.50;3.37;;;;;;;1.92;58.66;101055.00;4350375;32;35536;-85
2022/12/17 21:01:23;;;;;;;2.45;2.28;;;;;;;1.81;59.02;101048.81;4351750;32;32485;-86
2022/12/17 21:03:53;;;;;;;0.20;0.20;;;;;;;1.95;58.37;101055.06;4345564;32;32965;-85
2022/12/17 21:06:27;;;;;;;0.95;0.88;;;;;;;1.45;59.93;101063.97;4329477;33;33700;-85
2022/12/17 21:09:03;;;;;;;1.45;1.35;;;;;;;2.00;58.50;101063.81;4340507;33;32317;-85
2022/12/17 21:11:40;;;;;;;4.18;3.78;;;;;;;1.48;59.62;101069.22;4326912;33;32941;-86
2022/12/17 21:14:13;;;;;;;2.60;2.50;;;;;;;2.00;57.99;101071.63;4352960;32;33259;-85
2022/12/17 21:16:48;;;;;;;1.55;1.45;;;;;;;1.78;59.00;101080.87;4352495;32;31496;-85
2022/12/17 21:19:23;;;;;;;0.55;0.55;;;;;;;1.64;59.87;101078.09;4317871;33;33395;-85
2022/12/17 21:21:54;;;;;;;4.10;0.65;;;;;;;1.54;59.87;101089.25;4341341;32;33598;-85
2022/12/17 21:24:24;;;;;;;2.22;1.52;;;;;;;1.81;58.91;101088.75;4333890;33;32753;-86
2022/12/17 21:26:52;;;;;;;1.65;1.00;;;;;;;1.74;58.17;101086.91;4353305;32;33024;-86
2022/12/17 21:29:22;;;;;;;2.65;2.05;;;;;;;1.68;59.11;101097.25;4352706;32;33920;-85
2022/12/17 21:34:37;;;;;;;13.32;1.75;;;;;;;1.75;58.35;101107.75;4339561;33;34041;-86
2022/12/17 21:37:06;;;;;;;1.05;1.00;;;;;;;1.85;57.90;101106.12;4328657;33;32274;-85
2022/12/17 21:39:37;;;;;;;4.53;2.47;;;;;;;2.27;56.75;101105.78;4340439;32;33496;-86
2022/12/17 21:44:54;;;;;;;4.43;4.03;;;;;;;2.25;56.66;101122.25;4352791;32;32526;-85
2022/12/17 21:47:23;;;;;;;2.30;1.20;;;;;;;2.28;56.71;101122.31;4347507;32;33823;-86
2022/12/17 21:49:55;;;;;;;3.08;1.87;;;;;;;2.12;57.05;101128.19;4322266;33;34154;-86
2022/12/17 21:52:28;;;;;;;1.58;1.40;;;;;;;2.12;56.88;101131.66;4321758;33;33171;-86
2022/12/17 21:55:00;;;;;;;0.90;0.68;;;;;;;2.31;56.39;101135.34;4316674;33;32834;-85
2022/12/17 21:57:30;;;;;;;2.40;1.55;;;;;;;2.07;56.83;101127.25;4339310;32;33348;-86
2022/12/17 21:59:59;;;;;;;0.98;0.98;;;;;;;1.75;57.99;101131.19;4340157;32;32202;-85
2022/12/17 22:02:27;;;;;;;0.35;0.35;;;;;;;1.52;59.08;101137.84;4328820;33;33559;-85
2022/12/17 22:04:56;;;;;;;0.88;0.82;;;;;;;1.39;59.16;101130.69;4331242;32;33532;-86
2022/12/17 22:07:24;;;;;;;0.20;0.20;;;;;;;1.27;59.66;101149.56;4334931;33;32160;-85
2022/12/17 22:10:08;;;;;;;1.62;1.60;;;;;;;1.33;60.18;101146.19;4342704;32;33794;-85
2022/12/17 22:15:45;;;;;;;1.27;1.27;;;;;;;0.98;61.21;101157.78;4352612;32;33908;-86
2022/12/17 22:18:17;;;;;;;2.05;1.65;;;;;;;1.02;61.43;101166.53;4359839;32;31080;-85
2022/12/17 22:20:57;;;;;;;0.37;0.37;;;;;;;1.38;60.02;101154.97;4358327;32;33635;-86
2022/12/17 22:23:27;;;;;;;1.65;1.55;;;;;;;1.02;61.38;101158.72;4343894;33;34210;-86
2022/12/17 22:25:55;;;;;;;1.00;1.00;;;;;;;0.93;61.36;101155.97;4339621;32;32806;-85
2022/12/17 22:28:26;;;;;;;2.33;2.17;;;;;;;1.30;60.35;101159.19;4366934;32;31736;-85
2022/12/17 22:33:54;;;;;;;0.30;0.30;;;;;;;0.77;62.17;101163.50;4344877;32;33071;-86
2022/12/17 22:36:29;;;;;;;1.95;1.85;;;;;;;1.60;59.31;101162.22;4366872;32;33760;-86
2022/12/17 22:39:19;;;;;;;1.67;1.62;;;;;;;1.26;59.96;101172.13;4337181;33;32398;-85
2022/12/17 22:45:14;;;;;;;3.65;2.65;;;;;;;1.72;58.52;101172.81;4352544;32;32883;-84
2022/12/17 22:47:43;;;;;;;0.47;0.47;;;;;;;0.86;61.24;101187.91;4344568;32;33897;-90
2022/12/17 22:50:21;;;;;;;6.53;3.87;;;;;;;0.69;62.45;101188.47;4339488;33;32473;-89
2022/12/17 22:53:07;;;;;;;2.45;2.25;;;;;;;1.03;61.37;101178.66;4335080;33;33458;-89
2022/12/17 22:56:03;;;;;;;1.45;0.95;;;;;;;0.96;61.16;101187.22;4332706;33;33322;-90
2022/12/17 22:58:47;;;;;;;3.40;2.08;;;;;;;1.05;60.77;101192.59;4334484;33;33243;-89
2022/12/17 23:01:16;;;;;;;1.12;1.12;;;;;;;1.47;59.48;101194.13;4333839;33;32465;-89
2022/12/17 23:04:22;;;;;;;2.75;2.58;;;;;;;1.55;59.02;101200.34;4331754;33;32697;-91
2022/12/17 23:07:13;;;;;;;4.55;1.52;;;;;;;1.31;59.62;101212.97;4324603;33;33221;-91
2022/12/17 23:09:44;;;;;;;1.08;1.08;;;;;;;1.35;59.80;101227.78;4332685;33;33100;-90
2022/12/17 23:15:18;;;;;;;1.75;1.65;;;;;;;0.83;60.77;101237.25;4333681;33;32717;-91
2022/12/17 23:18:00;;;;;;;0.00;0.00;;;;;;;1.36;59.57;101230.41;4335369;33;33258;-90
2022/12/17 23:20:52;;;;;;;1.62;1.52;;;;;;;1.46;59.13;101240.09;4306951;33;32199;-90
2022/12/17 23:23:43;;;;;;;5.25;4.18;;;;;;;1.05;60.39;101249.81;4352379;32;33497;-90
2022/12/17 23:26:34;;;;;;;2.45;2.30;;;;;;;1.24;59.77;101249.28;4348114;32;33247;-91
2022/12/17 23:29:08;;;;;;;0.65;0.65;;;;;;;1.11;59.94;101259.44;4366323;32;32928;-90
2022/12/17 23:31:38;;;;;;;5.00;1.05;;;;;;;1.07;60.74;101263.72;4326199;32;34662;-90
2022/12/17 23:34:27;;;;;;;1.12;1.12;;;;;;;1.23;59.64;101260.53;4349940;32;33552;-91
2022/12/17 23:36:59;;;;;;;4.55;3.70;;;;;;;1.19;59.63;101274.34;4351931;32;33297;-91
2022/12/17 23:39:33;;;;;;;0.88;0.88;;;;;;;1.42;58.77;101269.53;4327136;32;32966;-90
2022/12/17 23:42:01;;;;;;;3.10;2.72;;;;;;;1.36;58.92;101276.38;4319320;32;33907;-91
2022/12/17 23:47:15;;;;;;;2.37;2.22;;;;;;;1.14;60.05;101293.31;4355535;32;33598;-90
2022/12/17 23:49:44;;;;;;;1.42;1.37;;;;;;;1.06;59.34;101298.37;4364232;32;33294;-90
2022/12/17 23:52:12;;;;;;;3.33;2.10;;;;;;;1.32;58.93;101295.38;4352338;32;32952;-89
2022/12/17 23:54:40;;;;;;;1.80;1.70;;;;;;;1.11;59.25;101291.53;4329917;32;34047;-90
2022/12/17 23:57:09;;;;;;;0.88;0.88;;;;;;;1.12;59.92;101293.28;4341347;32;32615;-89
2022/12/17 23:59:39;;;;;;;5.47;3.10;;;;;;;1.17;59.29;101296.84;4337704;32;31257;-90
